Aérodrome :
LOGIN :

S'inscrire | Disclaimer

   EN    FR    IT 

 










Légende :    VFR   VFR Marginal   IFR   IFR Intensif   IFR Très Intensif
Visi : 
Plafond : 
>= 8 km
>= 3000ft
5 à 8 km
1000 à 3000 ft
1500m à 5 km
500 à 1000 ft
800 à 1500m
200 à 500 ft
< 800m
< 200 ft
Symboles :   Orages  Brouillard  Fortes neiges  Fortes précipitations  Vent > 20 kt
SIGMETs :   Divers  Orages  Givrage  Turbulence  Onde Orograph.  Cendres Volcan.






- Altitude de l'aérodrome : 290 ft
- Code IATA : OSI


LDOS - Osijek

DERNIER METAR :
  • 160630Z 16007KT CAVOK 03/01 Q1021

METARs EXPIRÉS :
  • 160600Z 17007KT CAVOK 03/01 Q1020
  • 160530Z 17008KT CAVOK 02/01 Q1020
  • 160500Z 17005KT CAVOK 02/01 Q1020
  • 160430Z 19008KT CAVOK 03/01 Q1020
  • 160400Z 19011KT CAVOK 04/01 Q1020

TAF TAF LDOS
Valide du 16 à 06h jusqu'au 17 à 06h UTC


160525Z 1606/1706 18007KT 9999 SCT040 TX13/1613Z TN02/1606Z



MET'MAP, la Météo Aéronautique d'un coup d'oeil ! - Copyright ORBIFLY Décembre 2007 - Disclaimer

ORBIFLY MET'MAP TEAM :

Programmation & Développement : Alexandra Zaïnal
Sur une idée originale de : Baudouin d'Aumeries
Assistance à la programmation : Marc-Olivier Méhu
Soutien technique & logistique : Manuel Goepfert

Contact : metmap@orbifly.com




SOURCES & CREDITS :

   NOAA